Time;durP1;ratioP1;P1;durP2;ratioP2;P2;SDS_P1;SDS_P2;PMS_P1;PMS_P2;Temp;Humidity;BMP_temperature;BMP_pressure;BME280_temperature;BME280_humidity;BME280_pressure;Samples;Min_cycle;Max_cycle;Signal;HPM_P1;HPM_P2
2023/01/12 00:01:10;;;;;;;31.50;3.65;;;;;;;22.16;60.81;99345.06;7295396;19;129438;-39
2023/01/12 00:03:35;;;;;;;31.47;3.67;;;;;;;22.06;59.64;99341.69;7303195;19;129449;-40
2023/01/12 00:06:04;;;;;;;27.38;2.97;;;;;;;22.01;61.04;99343.91;7298120;19;129357;-34
2023/01/12 00:08:31;;;;;;;48.08;5.13;;;;;;;21.98;60.78;99341.59;7302883;19;131052;-40
2023/01/12 00:10:56;;;;;;;36.78;3.90;;;;;;;21.96;60.98;99353.03;7303680;19;129480;-39
2023/01/12 00:13:21;;;;;;;34.40;3.70;;;;;;;21.95;61.07;99346.16;7308986;19;129196;-40
2023/01/12 00:18:33;;;;;;;57.50;6.50;;;;;;;21.98;61.06;99344.22;7306091;19;130154;-40
2023/01/12 00:20:59;;;;;;;42.60;4.78;;;;;;;21.98;61.25;99345.06;7299450;19;130143;-40
2023/01/12 00:23:28;;;;;;;35.03;3.77;;;;;;;21.98;60.91;99342.44;7309836;19;129128;-39
2023/01/12 00:25:53;;;;;;;40.38;4.55;;;;;;;21.99;61.26;99344.06;7305174;19;130658;-40
2023/01/12 00:28:19;;;;;;;40.42;4.40;;;;;;;21.87;60.91;99327.75;7305755;19;129710;-38
2023/01/12 00:30:44;;;;;;;81.95;9.60;;;;;;;21.98;61.06;99340.63;7306007;19;129171;-38
2023/01/12 00:33:09;;;;;;;26.73;3.03;;;;;;;22.00;60.88;99337.06;7308383;19;129637;-36
2023/01/12 00:35:35;;;;;;;32.25;3.63;;;;;;;22.01;60.72;99333.44;7305822;19;129509;-41
2023/01/12 00:38:00;;;;;;;41.23;4.77;;;;;;;21.98;61.43;99324.91;7303573;19;129944;-39
2023/01/12 00:40:26;;;;;;;62.40;5.88;;;;;;;22.00;60.86;99321.34;7306514;19;129800;-38
2023/01/12 00:45:52;;;;;;;43.28;4.75;;;;;;;22.00;60.56;99311.66;7302961;19;130121;-40
2023/01/12 00:48:17;;;;;;;31.90;3.42;;;;;;;22.01;61.36;99317.75;7306905;19;130492;-39
2023/01/12 00:50:45;;;;;;;21.70;2.67;;;;;;;22.01;60.98;99318.56;7304655;19;129164;-38
2023/01/12 00:53:10;;;;;;;45.13;5.07;;;;;;;22.01;60.80;99322.97;7303701;19;129025;-36
2023/01/12 00:55:36;;;;;;;28.67;3.25;;;;;;;22.02;60.64;99324.59;7307963;19;130443;-39
2023/01/12 00:58:01;;;;;;;42.60;4.67;;;;;;;21.92;60.80;99309.81;7303206;19;129365;-38
2023/01/12 01:00:26;;;;;;;44.03;4.75;;;;;;;22.03;59.99;99326.28;7303996;19;129327;-38
2023/01/12 01:02:52;;;;;;;33.45;3.58;;;;;;;22.03;61.29;99336.75;7305310;19;129854;-40
2023/01/12 01:05:17;;;;;;;46.30;4.97;;;;;;;22.04;61.42;99320.06;7305724;19;130058;-38
2023/01/12 01:07:43;;;;;;;62.07;7.40;;;;;;;22.04;60.10;99322.66;7298305;19;133055;-40
2023/01/12 01:10:10;;;;;;;31.70;3.40;;;;;;;22.01;60.31;99322.97;7306636;19;130143;-40
2023/01/12 01:12:35;;;;;;;42.13;4.50;;;;;;;22.03;60.28;99321.03;7304529;19;131090;-38
2023/01/12 01:15:01;;;;;;;54.05;6.70;;;;;;;21.92;60.00;99314.22;7306318;19;129627;-38
2023/01/12 01:17:27;;;;;;;31.67;3.25;;;;;;;22.02;60.87;99324.59;7307036;19;130301;-39
2023/01/12 01:19:53;;;;;;;25.73;3.00;;;;;;;22.02;60.70;99325.44;7305369;19;129410;-39
2023/01/12 01:22:19;;;;;;;50.33;4.93;;;;;;;21.94;60.65;99313.09;7303072;19;129731;-37
2023/01/12 01:24:44;;;;;;;38.70;4.23;;;;;;;22.03;60.50;99319.25;7299398;19;130431;-39
2023/01/12 01:27:09;;;;;;;34.00;3.40;;;;;;;21.92;60.25;99295.91;7305397;19;129907;-37
2023/01/12 01:29:35;;;;;;;37.83;4.63;;;;;;;22.05;60.68;99319.09;7303096;19;129841;-40
2023/01/12 01:32:00;;;;;;;58.20;6.22;;;;;;;22.06;60.57;99318.13;7301468;19;130120;-37
2023/01/12 01:34:26;;;;;;;43.45;4.45;;;;;;;22.04;60.76;99318.28;7307088;19;130150;-38
2023/01/12 01:36:51;;;;;;;35.58;3.47;;;;;;;22.07;60.57;99327.59;7304391;19;129991;-38
2023/01/12 01:39:16;;;;;;;41.17;4.55;;;;;;;22.07;61.06;99322.38;7304867;19;129495;-39
2023/01/12 01:41:42;;;;;;;44.20;4.67;;;;;;;22.05;60.06;99321.72;7296861;19;129268;-40
2023/01/12 01:44:28;;;;;;;34.50;3.70;;;;;;;22.04;62.54;99318.28;7305743;19;129546;-40
2023/01/12 01:47:09;;;;;;;33.28;3.42;;;;;;;22.03;61.58;99329.72;7302733;19;132009;-39
2023/01/12 01:49:40;;;;;;;31.92;3.50;;;;;;;21.94;60.91;99318.34;7304521;19;132375;-39
2023/01/12 01:52:08;;;;;;;56.92;6.32;;;;;;;22.04;60.63;99339.22;7300844;19;130191;-40
2023/01/12 01:54:46;;;;;;;46.83;4.85;;;;;;;22.00;62.09;99321.34;7305774;19;131144;-39
2023/01/12 01:57:13;;;;;;;82.97;9.52;;;;;;;22.05;60.73;99319.09;7302232;19;130621;-40
2023/01/12 01:59:41;;;;;;;36.13;3.75;;;;;;;21.93;60.96;99300.19;7306413;19;129220;-38
2023/01/12 02:02:07;;;;;;;56.75;6.10;;;;;;;21.98;60.39;99323.28;7303088;19;129875;-35
2023/01/12 02:04:33;;;;;;;61.30;6.70;;;;;;;21.89;60.10;99320.59;7300547;19;129694;-39
2023/01/12 02:07:01;;;;;;;43.28;4.53;;;;;;;21.89;60.21;99331.06;7302982;19;129749;-39
2023/01/12 02:09:27;;;;;;;31.88;3.47;;;;;;;21.87;61.17;99333.00;7302508;19;129662;-40
2023/01/12 02:18:09;;;;;;;34.90;3.50;;;;;;;21.88;62.21;99339.84;7303361;19;130002;-39
2023/01/12 02:20:58;;;;;;;32.83;3.70;;;;;;;21.87;62.35;99334.78;7299432;19;129518;-39
2023/01/12 02:23:58;;;;;;;32.03;3.50;;;;;;;21.91;61.75;99334.31;7304364;19;129273;-41
2023/01/12 02:26:32;;;;;;;41.72;4.20;;;;;;;21.83;62.19;99315.91;7300264;19;129737;-40
2023/01/12 02:29:22;;;;;;;29.50;3.08;;;;;;;21.93;61.89;99321.91;7306457;19;130706;-38
2023/01/12 02:32:17;;;;;;;51.65;5.80;;;;;;;21.93;60.63;99319.28;7277901;19;130457;-39
2023/01/12 02:34:58;;;;;;;41.17;4.60;;;;;;;21.93;61.55;99316.69;7300798;19;129591;-36
2023/01/12 02:37:41;;;;;;;36.42;4.22;;;;;;;21.90;60.87;99311.75;7297967;19;130447;-39
2023/01/12 02:40:20;;;;;;;31.42;3.55;;;;;;;21.82;61.01;99292.53;7303548;19;129909;-40
2023/01/12 02:42:59;;;;;;;38.08;4.35;;;;;;;21.90;60.32;99311.75;7302259;19;130197;-39
2023/01/12 02:45:36;;;;;;;40.70;3.85;;;;;;;21.91;61.08;99315.19;7301967;19;129325;-39
2023/01/12 02:48:26;;;;;;;26.27;2.95;;;;;;;21.92;61.70;99304.56;7304076;19;130303;-39
2023/01/12 02:51:06;;;;;;;43.20;4.65;;;;;;;21.90;60.61;99296.03;7304190;19;130853;-38
2023/01/12 02:53:43;;;;;;;35.20;3.97;;;;;;;21.90;61.45;99293.44;7302409;19;130246;-40
2023/01/12 02:56:17;;;;;;;34.47;3.38;;;;;;;21.89;60.97;99288.34;7303556;19;129887;-37
2023/01/12 02:58:54;;;;;;;37.70;3.95;;;;;;;21.87;61.39;99295.50;7302464;19;130098;-40
2023/01/12 03:01:22;;;;;;;53.33;5.78;;;;;;;21.86;60.28;99294.72;7302568;19;129823;-39
2023/01/12 03:03:49;;;;;;;36.63;3.97;;;;;;;21.84;60.52;99295.81;7300657;19;129874;-37
2023/01/12 03:06:16;;;;;;;24.60;2.80;;;;;;;21.86;60.78;99294.72;7301671;19;129384;-41
2023/01/12 03:08:43;;;;;;;59.30;6.57;;;;;;;21.86;61.06;99299.13;7298931;19;130126;-37
2023/01/12 03:11:17;;;;;;;31.08;3.25;;;;;;;21.83;61.02;99294.97;7286811;19;130726;-41
2023/01/12 03:13:56;;;;;;;57.00;7.10;;;;;;;21.86;61.58;99310.41;7301336;19;129458;-36
2023/01/12 03:16:32;;;;;;;29.73;3.20;;;;;;;21.87;61.75;99305.97;7299105;19;129292;-38
2023/01/12 03:19:24;;;;;;;55.75;6.68;;;;;;;21.86;60.73;99299.94;7301884;19;129235;-39
2023/01/12 03:21:56;;;;;;;32.70;3.63;;;;;;;21.85;61.36;99298.28;7300990;19;129755;-39
2023/01/12 03:24:45;;;;;;;25.67;3.28;;;;;;;21.84;62.24;99294.03;7302139;19;129113;-40
2023/01/12 03:27:27;;;;;;;31.00;3.20;;;;;;;21.87;61.79;99285.88;7302624;19;129954;-38
2023/01/12 03:29:58;;;;;;;35.53;3.60;;;;;;;21.86;61.12;99289.47;7302723;19;129591;-38
2023/01/12 03:32:24;;;;;;;43.20;4.45;;;;;;;21.86;61.01;99288.66;7299791;19;129772;-40
2023/01/12 03:34:50;;;;;;;99.13;11.77;;;;;;;21.83;60.89;99289.75;7299734;19;129996;-40
2023/01/12 03:37:31;;;;;;;32.73;3.33;;;;;;;21.83;61.69;99289.75;7300761;19;129235;-39
2023/01/12 03:40:00;;;;;;;46.58;4.80;;;;;;;21.81;61.38;99286.47;7302420;19;129320;-39
2023/01/12 03:42:35;;;;;;;27.20;2.90;;;;;;;21.73;61.42;99268.03;7300990;19;129782;-37
2023/01/12 03:45:08;;;;;;;44.75;5.43;;;;;;;21.83;61.79;99273.25;7301837;19;130039;-40
2023/01/12 03:47:35;;;;;;;39.15;3.97;;;;;;;21.71;61.31;99256.91;7303088;19;129616;-39
2023/01/12 03:50:16;;;;;;;28.67;2.95;;;;;;;21.82;61.57;99277.66;7303621;19;129494;-40
2023/01/12 03:52:43;;;;;;;36.45;4.07;;;;;;;21.80;61.31;99279.59;7304109;19;129170;-40
2023/01/12 03:55:13;;;;;;;43.90;5.00;;;;;;;21.81;61.14;99276.00;7299181;19;130159;-41
2023/01/12 03:57:38;;;;;;;68.82;6.85;;;;;;;21.83;60.50;99273.25;7301741;19;129562;-38
2023/01/12 04:00:08;;;;;;;36.90;3.65;;;;;;;21.81;61.24;99265.56;7301774;19;129856;-37
2023/01/12 04:02:34;;;;;;;43.47;4.93;;;;;;;21.80;60.51;99266.50;7296564;19;131411;-38
2023/01/12 04:04:59;;;;;;;46.55;5.13;;;;;;;21.81;61.39;99262.94;7299152;19;129897;-37
2023/01/12 04:07:25;;;;;;;15.13;1.80;;;;;;;21.82;60.46;99267.19;7302222;19;129613;-41
2023/01/12 04:09:51;;;;;;;43.92;4.53;;;;;;;21.83;60.44;99257.53;7294460;19;129809;-40
2023/01/12 04:12:17;;;;;;;26.13;2.83;;;;;;;21.83;60.96;99258.34;7300484;19;129314;-38
2023/01/12 04:14:44;;;;;;;39.33;4.37;;;;;;;21.71;60.92;99230.75;7301479;19;129668;-39
2023/01/12 04:17:12;;;;;;;20.33;2.40;;;;;;;21.81;61.24;99247.22;7300561;19;129231;-41
2023/01/12 04:19:38;;;;;;;48.55;5.18;;;;;;;21.80;60.32;99240.34;7298144;19;129772;-39
2023/01/12 04:24:47;;;;;;;47.28;5.47;;;;;;;21.81;60.71;99233.31;7299233;19;129846;-39
2023/01/12 04:27:14;;;;;;;29.40;3.17;;;;;;;21.80;60.94;99232.47;7301618;19;129635;-39
2023/01/12 04:29:39;;;;;;;;;;;;;;;21.82;62.14;99235.78;7296301;19;129905;-38
2023/01/12 04:32:05;;;;;;;46.73;5.07;;;;;;;21.77;61.04;99230.16;7299859;19;129590;-41
2023/01/12 04:34:30;;;;;;;31.10;3.17;;;;;;;21.73;61.04;99230.59;7303046;19;129481;-40
2023/01/12 04:36:55;;;;;;;38.08;3.80;;;;;;;21.65;61.13;99230.53;7297588;19;129465;-40
2023/01/12 04:39:21;;;;;;;38.03;4.05;;;;;;;21.57;61.11;99231.25;7297738;19;130215;-39
2023/01/12 04:41:46;;;;;;;46.57;4.40;;;;;;;21.71;60.30;99228.13;7298711;19;129672;-39
2023/01/12 04:44:11;;;;;;;65.75;6.72;;;;;;;21.91;59.53;99216.53;7299698;19;129781;-37
2023/01/12 04:46:37;;;;;;;38.10;4.17;;;;;;;22.02;59.59;99209.44;7295838;19;129775;-37
2023/01/12 04:49:02;;;;;;;25.40;3.20;;;;;;;22.10;59.60;99222.63;7299593;19;130016;-40
2023/01/12 04:51:28;;;;;;;35.13;3.67;;;;;;;22.10;59.76;99205.09;7301267;19;129193;-39
2023/01/12 04:53:53;;;;;;;45.25;5.00;;;;;;;22.24;58.93;99204.53;7295867;19;130084;-40
2023/01/12 04:56:19;;;;;;;28.60;3.03;;;;;;;22.22;58.95;99205.66;7300805;19;129762;-38
2023/01/12 04:58:44;;;;;;;48.55;5.47;;;;;;;22.26;58.48;99209.63;7303252;19;130048;-39
2023/01/12 05:01:11;;;;;;;44.40;5.20;;;;;;;22.37;59.00;99210.19;7299125;19;129678;-37
2023/01/12 05:03:36;;;;;;;32.97;3.45;;;;;;;22.38;58.30;99206.59;7307422;19;130087;-40
2023/01/12 05:06:03;;;;;;;38.78;3.88;;;;;;;22.45;58.53;99201.56;7304084;19;128917;-39
2023/01/12 05:11:12;;;;;;;45.55;4.50;;;;;;;22.57;58.02;99192.50;7306652;19;130051;-38
2023/01/12 05:13:37;;;;;;;26.97;2.90;;;;;;;22.58;58.06;99188.88;7305918;19;130161;-40
2023/01/12 05:16:14;;;;;;;42.25;4.53;;;;;;;22.65;57.96;99192.53;7297797;19;129423;-39
2023/01/12 05:18:40;;;;;;;38.13;4.23;;;;;;;22.68;57.62;99194.84;7306830;19;129830;-38
2023/01/12 05:21:06;;;;;;;38.63;4.10;;;;;;;22.77;57.27;99193.91;7298630;19;129860;-40
2023/01/12 05:23:31;;;;;;;43.33;4.13;;;;;;;22.85;57.38;99194.78;7304415;19;130171;-40
2023/01/12 05:26:01;;;;;;;57.67;6.63;;;;;;;22.87;57.55;99187.56;7300283;19;130082;-36
2023/01/12 05:28:28;;;;;;;30.00;3.00;;;;;;;22.94;56.85;99190.41;7284795;19;130263;-41
2023/01/12 05:30:54;;;;;;;51.88;6.03;;;;;;;22.99;57.31;99185.50;7299414;19;129552;-40
2023/01/12 05:33:19;;;;;;;41.47;4.27;;;;;;;23.00;56.63;99187.13;7305951;19;129502;-38
2023/01/12 05:35:45;;;;;;;42.40;4.75;;;;;;;23.05;57.36;99182.25;7299182;19;130474;-38
2023/01/12 05:38:11;;;;;;;42.40;4.90;;;;;;;23.02;56.77;99179.94;7300899;19;131394;-40
2023/01/12 05:40:36;;;;;;;42.43;4.20;;;;;;;22.93;57.27;99181.69;7305380;19;131057;-38
2023/01/12 05:45:45;;;;;;;28.45;3.30;;;;;;;22.72;57.98;99172.59;7305140;19;129876;-38
2023/01/12 05:48:11;;;;;;;45.43;4.87;;;;;;;22.56;58.21;99170.72;7296762;19;129735;-40
2023/01/12 05:50:36;;;;;;;25.27;2.70;;;;;;;22.51;58.52;99170.31;7305420;19;129774;-39
2023/01/12 05:53:02;;;;;;;43.15;4.63;;;;;;;22.43;58.69;99174.72;7298848;19;129500;-38
2023/01/12 05:55:27;;;;;;;38.00;4.00;;;;;;;22.40;59.24;99177.63;7303354;19;131294;-38
2023/01/12 05:57:53;;;;;;;42.17;4.95;;;;;;;22.32;59.19;99165.31;7304503;19;130110;-39
2023/01/12 06:00:18;;;;;;;40.30;4.15;;;;;;;22.26;59.20;99162.50;7304675;19;129685;-40
2023/01/12 06:02:44;;;;;;;49.70;4.83;;;;;;;22.19;59.48;99153.59;7304994;19;129630;-36
2023/01/12 06:05:09;;;;;;;63.23;7.30;;;;;;;22.12;58.82;99155.19;7293034;19;129943;-38
2023/01/12 06:07:35;;;;;;;39.33;3.83;;;;;;;22.08;59.68;99159.09;7302223;19;131472;-38
2023/01/12 06:10:01;;;;;;;36.27;3.80;;;;;;;22.06;59.44;99163.66;7294739;19;130577;-39
2023/01/12 06:15:10;;;;;;;66.88;7.93;;;;;;;22.03;59.31;99177.06;7299805;19;130338;-38
2023/01/12 06:17:36;;;;;;;47.23;4.83;;;;;;;22.00;59.36;99166.91;7300371;19;132602;-35
2023/01/12 06:20:01;;;;;;;34.47;3.73;;;;;;;22.07;59.47;99173.97;7301153;19;129612;-38
2023/01/12 06:22:26;;;;;;;48.77;5.03;;;;;;;22.16;58.65;99180.94;7300239;19;129488;-37
2023/01/12 06:24:53;;;;;;;33.33;3.75;;;;;;;22.25;58.94;99180.00;7302830;19;130064;-39
2023/01/12 06:27:18;;;;;;;32.55;3.45;;;;;;;22.25;59.13;99174.75;7302994;19;130666;-40
2023/01/12 06:29:44;;;;;;;38.65;4.15;;;;;;;22.37;58.50;99170.09;7304088;19;129975;-40
2023/01/12 06:32:09;;;;;;;52.55;5.55;;;;;;;22.39;58.53;99160.28;7303433;19;129332;-39
2023/01/12 06:34:35;;;;;;;36.47;3.57;;;;;;;22.48;58.67;99169.81;7305744;19;129271;-39
2023/01/12 06:37:05;;;;;;;31.33;3.35;;;;;;;22.53;57.69;99168.41;7300406;19;129778;-39
2023/01/12 06:39:31;;;;;;;36.83;3.80;;;;;;;22.58;57.85;99165.31;7304114;19;130416;-39
2023/01/12 06:44:41;;;;;;;42.58;4.38;;;;;;;22.63;57.95;99157.81;7301666;19;130421;-35
2023/01/12 06:47:06;;;;;;;35.10;3.87;;;;;;;22.62;58.12;99167.47;7304277;19;129933;-38
2023/01/12 06:49:31;;;;;;;19.57;2.47;;;;;;;22.47;57.86;99153.28;7303074;19;129300;-38
2023/01/12 06:51:57;;;;;;;26.37;2.73;;;;;;;22.44;58.17;99168.50;7304813;19;129752;-41
2023/01/12 06:54:22;;;;;;;42.73;4.10;;;;;;;22.40;58.84;99164.53;7307931;19;129898;-39
2023/01/12 06:56:48;;;;;;;27.13;2.97;;;;;;;22.41;58.94;99171.44;7306914;19;130122;-40
2023/01/12 06:59:13;;;;;;;27.03;2.83;;;;;;;22.36;58.68;99171.06;7307362;19;129797;-39
2023/01/12 07:01:39;;;;;;;31.00;3.03;;;;;;;22.34;58.87;99162.53;7306580;19;129426;-39
2023/01/12 07:04:05;;;;;;;30.47;3.03;;;;;;;22.26;59.04;99154.63;7305604;19;129633;-38
2023/01/12 07:06:34;;;;;;;28.80;3.00;;;;;;;22.18;59.41;99165.06;7305501;19;129723;-40
2023/01/12 07:08:59;;;;;;;22.63;2.27;;;;;;;22.13;59.39;99159.47;7307051;19;130075;-39
2023/01/12 07:11:25;;;;;;;43.17;4.38;;;;;;;22.11;59.31;99171.88;7306336;19;130732;-38
2023/01/12 07:13:50;;;;;;;26.70;2.63;;;;;;;22.04;59.80;99170.84;7308186;19;129061;-40
2023/01/12 07:16:15;;;;;;;31.60;3.00;;;;;;;22.04;59.79;99161.19;7307189;19;129410;-40
2023/01/12 07:18:41;;;;;;;32.30;3.22;;;;;;;22.04;59.62;99168.22;7306781;19;129669;-38
2023/01/12 07:21:08;;;;;;;36.93;3.67;;;;;;;22.03;60.16;99143.88;7305335;19;129213;-39
2023/01/12 07:23:34;;;;;;;17.98;1.95;;;;;;;22.20;59.64;99155.22;7308375;19;129792;-37
2023/01/12 07:25:59;;;;;;;25.13;2.93;;;;;;;22.24;59.59;99152.19;7307194;19;130091;-39
2023/01/12 07:28:25;;;;;;;34.30;3.33;;;;;;;22.27;59.28;99156.28;7307787;19;130114;-40
2023/01/12 07:30:50;;;;;;;35.13;3.43;;;;;;;22.32;58.77;99164.47;7307189;19;129294;-39
2023/01/12 07:33:16;;;;;;;28.17;2.70;;;;;;;22.37;58.73;99172.69;7308124;19;129551;-39
2023/01/12 07:35:41;;;;;;;20.33;2.10;;;;;;;22.44;59.28;99174.56;7307785;19;129254;-39
2023/01/12 07:38:07;;;;;;;14.65;1.75;;;;;;;22.47;58.42;99173.41;7307042;19;129295;-38
2023/01/12 07:40:33;;;;;;;36.10;3.57;;;;;;;22.49;59.06;99176.72;7306719;19;129309;-40
2023/01/12 07:43:05;;;;;;;22.27;2.80;;;;;;;22.57;58.50;99172.38;7307798;19;129120;-40
2023/01/12 07:45:30;;;;;;;32.53;3.58;;;;;;;22.66;58.12;99174.03;7305847;19;129935;-40
2023/01/12 07:47:56;;;;;;;26.27;2.72;;;;;;;22.66;58.59;99158.31;7306333;19;129619;-40
2023/01/12 07:50:23;;;;;;;38.25;3.60;;;;;;;22.67;57.76;99165.22;7306963;19;129250;-39
2023/01/12 07:52:49;;;;;;;25.00;2.55;;;;;;;22.65;58.63;99176.81;7307273;19;129308;-38
2023/01/12 07:55:17;;;;;;;25.27;2.63;;;;;;;22.58;58.89;99171.38;7305362;19;129548;-40
2023/01/12 07:57:51;;;;;;;24.40;2.65;;;;;;;22.48;58.73;99168.03;7306557;19;130144;-41
2023/01/12 08:00:17;;;;;;;29.42;2.85;;;;;;;22.37;59.19;99146.50;7306330;19;129885;-40
2023/01/12 08:02:42;;;;;;;27.27;2.73;;;;;;;22.43;59.01;99166.88;7305293;19;128991;-39
2023/01/12 08:05:08;;;;;;;40.17;4.47;;;;;;;22.41;58.75;99164.38;7305825;19;130428;-37
2023/01/12 08:07:33;;;;;;;35.30;3.73;;;;;;;22.33;59.33;99159.09;7305859;19;129537;-38
2023/01/12 08:09:59;;;;;;;25.52;2.60;;;;;;;22.29;59.06;99167.41;7305826;19;129730;-40
2023/01/12 08:12:24;;;;;;;28.25;2.72;;;;;;;22.21;59.11;99159.50;7303698;19;129368;-39
2023/01/12 08:14:49;;;;;;;23.13;2.20;;;;;;;22.18;59.83;99154.59;7306778;19;129842;-41
2023/01/12 08:17:20;;;;;;;33.90;3.28;;;;;;;22.01;59.64;99132.72;7304717;19;129353;-37
2023/01/12 08:20:00;;;;;;;23.73;2.45;;;;;;;21.96;60.69;99143.63;7305460;19;129450;-40
2023/01/12 08:22:35;;;;;;;46.88;4.45;;;;;;;22.06;60.09;99155.81;7303027;19;129228;-39
2023/01/12 08:25:09;;;;;;;27.65;3.17;;;;;;;21.97;60.12;99128.75;7306605;19;129474;-37
2023/01/12 08:27:37;;;;;;;28.85;3.05;;;;;;;22.17;59.80;99142.47;7305415;19;130671;-39
2023/01/12 08:30:07;;;;;;;23.70;2.42;;;;;;;22.23;60.06;99149.72;7305295;19;129631;-41
2023/01/12 08:32:34;;;;;;;24.52;2.63;;;;;;;22.34;59.32;99146.81;7307186;19;128992;-39
2023/01/12 08:35:02;;;;;;;36.45;3.53;;;;;;;22.36;59.51;99147.50;7310045;19;129730;-40
2023/01/12 08:37:28;;;;;;;30.98;2.92;;;;;;;22.44;59.45;99144.91;7312406;19;130653;-38
2023/01/12 08:39:54;;;;;;;27.02;2.80;;;;;;;22.46;59.55;99140.34;7311668;19;130337;-39
2023/01/12 08:42:22;;;;;;;25.33;2.53;;;;;;;22.56;58.88;99133.22;7309777;19;129106;-40
2023/01/12 08:44:47;;;;;;;30.58;2.90;;;;;;;22.57;58.36;99142.72;7312287;19;129910;-40
2023/01/12 08:47:15;;;;;;;32.70;3.43;;;;;;;22.64;58.54;99138.50;7311209;19;130382;-39
2023/01/12 08:49:41;;;;;;;24.80;2.55;;;;;;;22.67;58.67;99138.19;7311751;19;129348;-39
2023/01/12 08:52:06;;;;;;;20.50;2.13;;;;;;;22.61;58.89;99131.75;7309705;19;129569;-38
2023/01/12 08:54:32;;;;;;;34.90;3.30;;;;;;;22.58;59.00;99134.69;7311590;19;130083;-38
2023/01/12 08:56:57;;;;;;;28.87;2.77;;;;;;;22.57;59.01;99133.06;7309933;19;130302;-38
2023/01/12 08:59:22;;;;;;;38.37;3.83;;;;;;;22.53;58.47;99128.28;7311258;19;129581;-38
2023/01/12 09:01:48;;;;;;;19.33;2.33;;;;;;;22.51;58.95;99133.66;7309813;19;129281;-41
2023/01/12 09:04:13;;;;;;;33.43;3.13;;;;;;;22.49;59.51;99126.94;7311184;19;130845;-39
2023/01/12 09:06:43;;;;;;;27.93;2.80;;;;;;;22.41;59.30;99126.91;7311324;19;129639;-38
2023/01/12 09:09:11;;;;;;;24.35;2.45;;;;;;;22.33;59.20;99119.00;7310960;19;129060;-37
2023/01/12 09:11:39;;;;;;;29.55;2.85;;;;;;;22.30;59.39;99130.59;7309584;19;131306;-37
2023/01/12 09:14:05;;;;;;;41.20;3.88;;;;;;;22.24;59.77;99119.94;7311201;19;130145;-39
2023/01/12 09:16:32;;;;;;;24.40;2.50;;;;;;;22.23;59.65;99116.47;7310554;19;129293;-41
2023/01/12 09:18:57;;;;;;;21.65;2.25;;;;;;;22.21;59.62;99115.00;7310704;19;129604;-40
2023/01/12 09:21:24;;;;;;;27.83;2.80;;;;;;;22.13;60.50;99113.13;7308974;19;129264;-41
2023/01/12 09:23:51;;;;;;;30.95;3.08;;;;;;;22.02;60.38;99100.31;7310527;19;129414;-39
2023/01/12 09:26:30;;;;;;;;;;;;;;;22.00;60.16;99102.25;7310217;19;129289;-40
2023/01/12 09:28:57;;;;;;;;;;;;;;;21.96;61.11;99111.41;7311595;19;129370;-39
2023/01/12 09:31:22;;;;;;;31.70;3.05;;;;;;;22.04;60.12;99098.38;7309176;19;129662;-38
2023/01/12 09:33:48;;;;;;;33.00;3.13;;;;;;;22.08;60.38;99096.28;7309917;19;129331;-38
2023/01/12 09:36:17;;;;;;;21.15;2.13;;;;;;;22.14;60.06;99093.03;7309892;19;130162;-39
2023/01/12 09:38:43;;;;;;;21.23;2.17;;;;;;;22.16;60.18;99072.75;7310066;19;129063;-40
2023/01/12 09:41:11;;;;;;;35.90;3.47;;;;;;;22.31;60.16;99089.53;7308473;19;129499;-40
2023/01/12 09:49:12;;;;;;;36.97;3.45;;;;;;;22.47;59.56;99069.47;7310315;19;129569;-40
2023/01/12 09:51:53;;;;;;;19.50;2.05;;;;;;;22.55;59.23;99060.84;7309986;19;129412;-40
2023/01/12 09:54:18;;;;;;;20.45;2.17;;;;;;;22.66;58.56;99065.81;7310451;19;131740;-37
2023/01/12 09:56:51;;;;;;;22.70;2.17;;;;;;;22.59;58.68;99043.84;7309572;19;129583;-39
2023/01/12 09:59:19;;;;;;;17.05;1.83;;;;;;;22.68;58.32;99069.06;7308668;19;129119;-40
2023/01/12 10:01:45;;;;;;;30.95;3.25;;;;;;;22.68;58.39;99058.56;7308020;19;128941;-40
2023/01/12 10:04:11;;;;;;;30.97;3.13;;;;;;;22.57;58.44;99062.34;7308875;19;129819;-38
2023/01/12 10:06:36;;;;;;;28.10;2.70;;;;;;;22.54;58.69;99059.19;7309606;19;130617;-38
2023/01/12 10:09:05;;;;;;;22.60;2.35;;;;;;;22.51;58.96;99051.63;7309853;19;129530;-39
2023/01/12 10:11:30;;;;;;;28.10;2.65;;;;;;;22.37;58.88;99031.28;7308098;19;129284;-37
2023/01/12 10:14:08;;;;;;;24.20;2.33;;;;;;;22.41;59.32;99048.31;7309320;19;130435;-38
2023/01/12 10:16:36;;;;;;;;;;;;;;;22.26;59.36;99032.41;7310120;19;129176;-36
2023/01/12 10:19:16;;;;;;;25.02;2.65;;;;;;;22.32;59.64;99046.63;7308931;19;129931;-39
2023/01/12 10:21:42;;;;;;;16.52;1.80;;;;;;;22.18;60.04;99031.53;7306821;19;129722;-38
2023/01/12 10:24:10;;;;;;;28.27;2.70;;;;;;;22.20;59.64;99040.84;7309551;19;129414;-40
2023/01/12 10:26:41;;;;;;;29.67;2.85;;;;;;;22.14;59.83;99035.44;7308530;19;130007;-38
2023/01/12 10:29:10;;;;;;;26.90;2.55;;;;;;;22.10;60.18;99027.06;7308190;19;129126;-38
2023/01/12 10:31:35;;;;;;;22.63;2.22;;;;;;;22.06;60.42;99017.91;7307923;19;129454;-39
2023/01/12 10:34:06;;;;;;;23.47;2.37;;;;;;;21.92;60.52;99015.84;7308232;19;129596;-39
2023/01/12 10:36:34;;;;;;;37.40;3.55;;;;;;;22.00;61.05;99015.88;7308513;19;130015;-38
2023/01/12 10:39:03;;;;;;;17.00;1.88;;;;;;;22.05;60.81;99012.81;7309824;19;129749;-39
2023/01/12 10:41:32;;;;;;;31.65;3.05;;;;;;;22.05;60.30;99007.59;7306613;19;129552;-40
2023/01/12 10:43:58;;;;;;;14.25;1.92;;;;;;;22.06;60.09;98985.66;7307822;19;129456;-39
2023/01/12 10:46:26;;;;;;;48.88;4.43;;;;;;;22.22;59.83;99006.66;7307587;19;130732;-40
2023/01/12 10:49:21;;;;;;;23.98;2.38;;;;;;;22.28;59.41;99001.59;7309762;19;129326;-39
2023/01/12 10:51:53;;;;;;;31.80;3.08;;;;;;;22.41;59.52;98988.09;7307669;19;129304;-39
2023/01/12 10:54:23;;;;;;;33.90;3.35;;;;;;;22.44;59.07;98974.66;7306492;19;130127;-37
2023/01/12 10:57:00;;;;;;;22.20;2.28;;;;;;;22.39;59.15;98955.97;7307211;19;130473;-40
2023/01/12 10:59:28;;;;;;;;;;;;;;;22.42;59.28;98956.50;7308265;19;129381;-40
2023/01/12 11:02:05;;;;;;;28.35;2.63;;;;;;;22.59;58.49;98962.63;7305335;19;129219;-36
2023/01/12 11:04:38;;;;;;;24.63;2.40;;;;;;;22.53;59.19;98947.53;7306658;19;129674;-41
2023/01/12 11:07:18;;;;;;;27.20;2.72;;;;;;;22.74;58.68;98956.56;7307577;19;131602;-38
2023/01/12 11:09:44;;;;;;;24.67;2.47;;;;;;;22.65;58.58;98956.72;7308328;19;129258;-40
2023/01/12 11:12:33;;;;;;;31.17;3.10;;;;;;;22.63;58.53;98953.44;7306295;19;129251;-39
2023/01/12 11:15:13;;;;;;;31.73;3.22;;;;;;;22.57;58.64;98952.28;7307275;19;129974;-38
2023/01/12 11:17:42;;;;;;;14.90;1.58;;;;;;;22.50;58.88;98953.88;7307998;19;130385;-39
2023/01/12 11:20:33;;;;;;;27.08;2.55;;;;;;;22.47;59.54;98951.59;7306499;19;130080;-38
2023/01/12 11:23:02;;;;;;;22.50;2.20;;;;;;;22.42;59.78;98950.41;7304122;19;129072;-37
2023/01/12 11:25:34;;;;;;;38.47;3.92;;;;;;;22.35;60.14;98962.50;7306314;19;129416;-39
2023/01/12 11:28:06;;;;;;;20.15;2.10;;;;;;;22.27;59.86;98946.78;7307490;19;130348;-38
2023/01/12 11:30:45;;;;;;;28.48;2.88;;;;;;;22.23;60.23;98948.09;7307484;19;129212;-39
2023/01/12 11:33:33;;;;;;;18.98;2.00;;;;;;;22.19;60.13;98949.38;7307385;19;129811;-40
2023/01/12 11:36:05;;;;;;;26.92;2.95;;;;;;;22.14;60.14;98946.41;7306407;19;129729;-38
2023/01/12 11:38:42;;;;;;;29.35;2.88;;;;;;;22.08;60.32;98936.59;7305020;19;129425;-38
2023/01/12 11:41:18;;;;;;;23.83;2.42;;;;;;;22.02;60.36;98924.94;7307567;19;129374;-40
2023/01/12 11:44:07;;;;;;;30.67;2.88;;;;;;;22.03;61.03;98933.63;7306542;19;129748;-39
2023/01/12 11:46:48;;;;;;;41.33;4.47;;;;;;;22.05;60.27;98918.59;7304752;19;129710;-37
2023/01/12 11:49:34;;;;;;;34.28;3.22;;;;;;;22.10;60.21;98924.16;7304894;19;129279;-37
2023/01/12 11:52:01;;;;;;;34.00;3.40;;;;;;;22.19;60.70;98917.97;7304192;19;129720;-38
2023/01/12 11:54:29;;;;;;;32.30;3.03;;;;;;;22.19;59.58;98899.63;7307084;19;129332;-39
2023/01/12 11:56:54;;;;;;;24.75;2.58;;;;;;;22.35;59.29;98902.28;7305625;19;129897;-39
2023/01/12 11:59:29;;;;;;;27.67;2.60;;;;;;;22.27;59.33;98889.16;7306363;19;129264;-39